createdAt,value
2022-11-06T00:02:20.941Z,24.45
2022-11-06T00:04:48.360Z,24.52
2022-11-06T00:07:14.979Z,23.67
2022-11-06T00:09:41.623Z,24.10
2022-11-06T00:12:08.387Z,24.15
2022-11-06T00:14:35.422Z,24.73
2022-11-06T00:17:02.168Z,24.88
2022-11-06T00:19:28.793Z,25.70
2022-11-06T00:21:55.405Z,23.98
2022-11-06T00:24:22.082Z,23.50
2022-11-06T00:26:54.234Z,24.30
2022-11-06T00:29:21.284Z,23.20
2022-11-06T00:31:50.083Z,24.35
2022-11-06T00:34:16.866Z,24.08
2022-11-06T00:36:43.929Z,23.15
2022-11-06T00:39:11.813Z,23.80
2022-11-06T00:41:38.792Z,24.70
2022-11-06T00:44:05.621Z,25.17
2022-11-06T00:46:32.880Z,23.60
2022-11-06T00:48:59.497Z,23.58
2022-11-06T00:51:32.345Z,24.33
2022-11-06T00:54:00.796Z,25.20
2022-11-06T00:56:28.121Z,24.80
2022-11-06T00:58:59.109Z,24.10
2022-11-06T01:01:30.836Z,24.23
2022-11-06T01:04:10.987Z,24.23
2022-11-06T01:06:40.642Z,25.27
2022-11-06T01:09:08.632Z,23.90
2022-11-06T01:12:06.685Z,24.20
2022-11-06T01:14:26.447Z,27.70
2022-11-06T01:16:53.080Z,27.35
2022-11-06T01:19:21.454Z,25.27
2022-11-06T01:21:50.550Z,24.63
2022-11-06T01:24:21.520Z,24.40
2022-11-06T01:27:05.267Z,27.48
2022-11-06T01:29:36.169Z,26.17
2022-11-06T01:32:02.831Z,24.25
2022-11-06T01:34:29.803Z,26.88
2022-11-06T01:36:56.459Z,25.33
2022-11-06T01:39:23.128Z,24.33
2022-11-06T01:41:52.561Z,25.30
2022-11-06T01:44:40.894Z,25.58
2022-11-06T01:47:24.613Z,24.33
2022-11-06T01:49:55.454Z,24.80
2022-11-06T01:52:23.836Z,25.33
2022-11-06T01:54:59.673Z,24.23
2022-11-06T01:57:26.403Z,25.90
2022-11-06T01:59:55.025Z,26.42
2022-11-06T02:02:22.482Z,24.27
2022-11-06T02:04:50.145Z,25.45
2022-11-06T02:07:19.038Z,24.27
2022-11-06T02:09:46.260Z,22.58
2022-11-06T02:12:36.943Z,23.63
2022-11-06T02:15:25.599Z,23.73
2022-11-06T02:18:07.158Z,23.75
2022-11-06T02:20:41.871Z,23.10
2022-11-06T02:23:57.832Z,21.98
2022-11-06T02:26:35.713Z,22.83
2022-11-06T02:29:15.408Z,22.50
2022-11-06T02:31:45.402Z,20.52
2022-11-06T02:34:15.723Z,18.35
2022-11-06T02:37:00.358Z,17.80
2022-11-06T02:39:29.356Z,17.00
2022-11-06T02:41:58.687Z,15.18
2022-11-06T02:44:28.047Z,14.15
2022-11-06T02:47:00.026Z,12.32
2022-11-06T02:49:33.125Z,13.45
2022-11-06T02:52:06.843Z,11.25
2022-11-06T02:54:39.049Z,9.57
2022-11-06T02:59:47.742Z,9.18
2022-11-06T03:02:25.476Z,7.68
2022-11-06T03:04:59.517Z,8.88
2022-11-06T03:07:38.059Z,9.63
2022-11-06T03:10:06.929Z,10.02
2022-11-06T03:13:08.016Z,9.75
2022-11-06T03:16:04.887Z,10.30
2022-11-06T03:18:43.531Z,8.30
2022-11-06T03:21:24.404Z,9.32
2022-11-06T03:23:57.233Z,7.35
2022-11-06T03:26:33.516Z,8.25
2022-11-06T03:29:23.680Z,7.15
2022-11-06T03:32:01.935Z,7.47
2022-11-06T03:34:59.638Z,8.38
2022-11-06T03:37:35.980Z,7.05
2022-11-06T03:40:06.304Z,7.10
2022-11-06T03:42:33.247Z,7.00
2022-11-06T03:45:06.579Z,8.82
2022-11-06T03:47:49.090Z,8.73
2022-11-06T03:50:24.097Z,8.77
2022-11-06T03:53:00.863Z,8.60
2022-11-06T03:55:36.446Z,7.18
2022-11-06T03:58:11.414Z,9.00
2022-11-06T04:00:41.940Z,8.35
2022-11-06T04:03:21.175Z,9.63
2022-11-06T04:05:56.725Z,8.30
2022-11-06T04:08:45.363Z,8.13
2022-11-06T04:11:36.664Z,10.43
2022-11-06T04:14:07.251Z,10.18
2022-11-06T04:16:41.245Z,11.45
2022-11-06T04:19:25.920Z,10.65
2022-11-06T04:22:10.643Z,9.88
2022-11-06T04:25:05.357Z,8.85
2022-11-06T04:27:34.996Z,8.05
2022-11-06T04:30:14.657Z,8.68
2022-11-06T04:33:00.044Z,9.23
2022-11-06T04:35:42.546Z,8.82
2022-11-06T04:38:27.537Z,9.23
2022-11-06T04:41:35.162Z,8.30
2022-11-06T04:44:07.853Z,8.77
2022-11-06T04:46:40.897Z,7.65
2022-11-06T04:49:09.043Z,8.80
2022-11-06T04:51:39.377Z,7.65
2022-11-06T04:54:09.207Z,7.20
2022-11-06T04:56:40.142Z,7.20
2022-11-06T04:59:15.717Z,8.77
2022-11-06T05:01:42.462Z,8.07
2022-11-06T05:04:10.821Z,7.38
2022-11-06T05:06:37.643Z,8.27
2022-11-06T05:09:04.462Z,8.70
2022-11-06T05:11:31.271Z,8.80
2022-11-06T05:13:57.985Z,9.35
2022-11-06T05:16:24.699Z,9.88
2022-11-06T05:18:51.487Z,9.82
2022-11-06T05:21:36.652Z,8.27
2022-11-06T05:24:03.769Z,9.85
2022-11-06T05:26:30.739Z,8.70
2022-11-06T05:28:57.758Z,7.35
2022-11-06T05:31:25.279Z,8.18
2022-11-06T05:33:51.858Z,8.57
2022-11-06T05:36:18.602Z,8.38
2022-11-06T05:38:45.213Z,9.65
2022-11-06T05:41:12.392Z,10.90
2022-11-06T05:43:39.473Z,8.70
2022-11-06T05:46:14.959Z,7.75
2022-11-06T05:48:50.909Z,9.80
2022-11-06T05:51:17.966Z,10.32
2022-11-06T05:53:44.661Z,8.98
2022-11-06T05:56:11.580Z,9.93
2022-11-06T05:58:38.163Z,10.13
2022-11-06T06:01:05.298Z,9.57
2022-11-06T06:03:32.139Z,10.35
2022-11-06T06:05:58.894Z,10.13
2022-11-06T06:08:25.693Z,10.35
2022-11-06T06:10:52.314Z,9.73
2022-11-06T06:13:19.122Z,9.55
2022-11-06T06:15:46.348Z,10.32
2022-11-06T06:18:13.568Z,10.35
2022-11-06T06:20:40.582Z,11.93
2022-11-06T06:23:09.562Z,11.60
2022-11-06T06:25:36.593Z,12.63
2022-11-06T06:28:03.532Z,12.45
2022-11-06T06:30:30.782Z,14.73
2022-11-06T06:32:57.381Z,11.55
2022-11-06T06:35:23.989Z,12.15
2022-11-06T06:37:52.791Z,14.15
2022-11-06T06:40:20.080Z,13.50
2022-11-06T06:42:46.723Z,12.30
2022-11-06T06:45:13.601Z,13.55
2022-11-06T06:47:40.336Z,12.20
2022-11-06T06:55:59.489Z,14.63
2022-11-06T06:58:27.257Z,13.07
2022-11-06T07:00:54.088Z,12.85
2022-11-06T07:03:21.040Z,13.82
2022-11-06T07:05:47.704Z,13.25
2022-11-06T07:08:14.628Z,10.60
2022-11-06T07:10:41.798Z,14.13
2022-11-06T07:13:08.428Z,11.45
2022-11-06T07:15:35.436Z,12.02
2022-11-06T07:18:03.583Z,9.35
2022-11-06T07:20:30.724Z,12.02
2022-11-06T07:22:58.328Z,14.50
2022-11-06T07:25:26.011Z,11.20
2022-11-06T07:27:53.017Z,13.90
2022-11-06T07:30:19.839Z,13.68
2022-11-06T07:32:46.554Z,12.85
2022-11-06T07:35:13.259Z,12.80
2022-11-06T07:37:39.879Z,13.63
2022-11-06T07:40:07.625Z,11.43
2022-11-06T07:42:38.257Z,13.20
2022-11-06T07:45:08.420Z,14.15
2022-11-06T07:47:35.572Z,12.68
2022-11-06T07:50:02.465Z,13.10
2022-11-06T07:52:29.063Z,14.38
2022-11-06T07:54:56.186Z,11.80
2022-11-06T07:57:22.997Z,14.07
2022-11-06T07:59:49.818Z,14.32
2022-11-06T08:02:17.704Z,14.70
2022-11-06T08:04:44.654Z,14.85
2022-11-06T08:07:11.226Z,15.85
2022-11-06T08:09:37.864Z,14.93
2022-11-06T08:12:04.930Z,13.50
2022-11-06T08:14:31.645Z,17.10
2022-11-06T08:16:58.657Z,15.13
2022-11-06T08:19:26.110Z,14.70
2022-11-06T08:21:53.174Z,15.73
2022-11-06T08:24:22.052Z,14.02
2022-11-06T08:26:49.168Z,15.27
2022-11-06T08:29:16.263Z,13.98
2022-11-06T08:31:43.279Z,16.33
2022-11-06T08:34:10.589Z,13.88
2022-11-06T08:37:27.116Z,14.60
2022-11-06T08:39:53.941Z,12.98
2022-11-06T08:42:21.001Z,13.85
2022-11-06T08:44:48.184Z,14.95
2022-11-06T08:47:15.108Z,13.90
2022-11-06T08:49:41.969Z,14.05
2022-11-06T08:52:08.862Z,13.25
2022-11-06T08:54:38.528Z,14.15
2022-11-06T08:57:05.416Z,13.57
2022-11-06T08:59:33.281Z,13.90
2022-11-06T09:02:01.173Z,17.75
2022-11-06T09:04:28.088Z,18.65
2022-11-06T09:06:56.946Z,30.48
2022-11-06T09:09:24.266Z,35.13
2022-11-06T09:11:51.095Z,19.70
2022-11-06T09:14:18.339Z,15.95
2022-11-06T09:16:45.105Z,19.70
2022-11-06T09:19:12.022Z,14.75
2022-11-06T09:21:40.902Z,15.73
2022-11-06T09:24:07.729Z,15.45
2022-11-06T09:26:35.421Z,15.23
2022-11-06T09:29:02.265Z,17.40
2022-11-06T09:31:29.103Z,14.48
2022-11-06T09:33:56.211Z,15.63
2022-11-06T09:36:23.445Z,14.50
2022-11-06T09:38:50.311Z,16.58
2022-11-06T09:41:37.935Z,13.02
2022-11-06T09:44:41.175Z,10.90
2022-11-06T09:47:19.360Z,12.07
2022-11-06T09:49:52.030Z,12.82
2022-11-06T09:52:44.870Z,12.00
2022-11-06T09:55:25.453Z,13.85
2022-11-06T09:58:00.090Z,13.65
2022-11-06T10:00:29.791Z,13.60
2022-11-06T10:03:08.752Z,12.32
2022-11-06T10:05:38.412Z,12.68
2022-11-06T10:08:20.290Z,14.57
2022-11-06T10:11:24.434Z,13.43
2022-11-06T10:14:20.810Z,13.25
2022-11-06T10:17:01.638Z,15.35
2022-11-06T10:19:45.712Z,14.05
2022-11-06T10:22:17.979Z,17.30
2022-11-06T10:27:20.025Z,18.55
2022-11-06T10:30:04.714Z,17.05
2022-11-06T10:32:57.918Z,15.60
2022-11-06T10:35:47.058Z,13.80
2022-11-06T10:38:15.553Z,13.13
2022-11-06T10:40:46.478Z,14.10
2022-11-06T10:43:19.018Z,9.77
2022-11-06T10:45:50.677Z,11.85
2022-11-06T10:48:27.387Z,15.38
2022-11-06T10:51:21.033Z,14.43
2022-11-06T10:54:00.877Z,13.20
2022-11-06T10:56:59.615Z,11.10
2022-11-06T10:59:26.217Z,10.15
2022-11-06T11:01:54.006Z,13.15
2022-11-06T11:04:20.901Z,15.25
2022-11-06T11:06:47.655Z,13.90
2022-11-06T11:09:34.459Z,12.82
2022-11-06T11:12:01.347Z,11.88
2022-11-06T11:14:30.530Z,12.10
2022-11-06T11:17:01.976Z,9.77
2022-11-06T11:19:41.601Z,7.50
2022-11-06T11:22:21.626Z,9.88
2022-11-06T11:25:06.076Z,8.15
2022-11-06T11:27:38.329Z,9.25
2022-11-06T11:30:06.333Z,7.50
2022-11-06T11:32:33.640Z,10.05
2022-11-06T11:35:01.301Z,11.07
2022-11-06T11:37:31.065Z,16.17
2022-11-06T11:40:23.566Z,14.32
2022-11-06T11:45:19.498Z,12.77
2022-11-06T11:47:48.658Z,11.88
2022-11-06T11:50:20.292Z,13.70
2022-11-06T11:52:49.417Z,10.55
2022-11-06T11:55:18.587Z,12.43
2022-11-06T11:57:48.967Z,11.20
2022-11-06T12:00:20.913Z,9.80
2022-11-06T12:02:52.087Z,10.45
2022-11-06T12:05:24.198Z,12.03
2022-11-06T12:07:56.366Z,8.95
2022-11-06T12:13:05.271Z,7.00
2022-11-06T12:15:41.027Z,7.25
2022-11-06T12:18:15.796Z,7.80
2022-11-06T12:21:04.297Z,6.78
2022-11-06T12:23:53.809Z,8.02
2022-11-06T12:26:25.393Z,7.32
2022-11-06T12:29:02.010Z,7.15
2022-11-06T12:31:41.559Z,7.70
2022-11-06T12:34:17.851Z,8.05
2022-11-06T12:36:59.095Z,6.72
2022-11-06T12:39:33.554Z,6.60
2022-11-06T12:42:04.465Z,6.75
2022-11-06T12:44:31.179Z,6.63
2022-11-06T12:47:05.408Z,6.85
2022-11-06T12:49:44.574Z,5.75
2022-11-06T12:52:39.394Z,7.53
2022-11-06T12:55:32.041Z,7.00
2022-11-06T12:58:20.265Z,7.60
2022-11-06T13:01:08.302Z,8.10
2022-11-06T13:03:44.013Z,8.70
2022-11-06T13:06:24.518Z,7.05
2022-11-06T13:09:06.097Z,7.68
2022-11-06T13:12:17.602Z,7.70
2022-11-06T13:14:47.589Z,8.50
2022-11-06T13:17:26.731Z,7.78
2022-11-06T13:20:03.758Z,6.72
2022-11-06T13:22:42.561Z,6.72
2022-11-06T13:25:45.811Z,8.63
2022-11-06T13:28:26.805Z,6.85
2022-11-06T13:30:54.241Z,6.00
2022-11-06T13:33:28.656Z,7.53
2022-11-06T13:35:55.949Z,7.57
2022-11-06T13:38:28.637Z,7.57
2022-11-06T13:41:11.700Z,5.53
2022-11-06T13:43:54.990Z,6.78
2022-11-06T13:46:52.865Z,7.57
2022-11-06T13:49:43.491Z,8.45
2022-11-06T13:52:09.969Z,6.75
2022-11-06T13:55:03.359Z,6.07
2022-11-06T13:58:01.031Z,7.38
2022-11-06T14:00:45.818Z,5.45
2022-11-06T14:03:37.525Z,6.88
2022-11-06T14:06:25.130Z,6.43
2022-11-06T14:08:56.730Z,7.00
2022-11-06T14:11:33.106Z,6.75
2022-11-06T14:14:06.211Z,6.60
2022-11-06T14:16:41.120Z,6.65
2022-11-06T14:19:23.376Z,7.53
2022-11-06T14:21:56.605Z,9.50
2022-11-06T14:24:32.422Z,7.38
2022-11-06T14:27:06.611Z,6.15
2022-11-06T14:29:33.152Z,5.63
2022-11-06T14:32:06.512Z,6.25
2022-11-06T14:34:34.467Z,6.70
2022-11-06T14:37:19.741Z,6.55
2022-11-06T14:39:55.518Z,6.50
2022-11-06T14:42:33.820Z,6.53
2022-11-06T14:45:10.080Z,7.40
2022-11-06T14:47:51.372Z,7.72
2022-11-06T14:50:38.198Z,6.65
2022-11-06T14:53:24.341Z,7.60
2022-11-06T14:55:59.168Z,7.47
2022-11-06T14:58:31.307Z,7.40
2022-11-06T15:03:37.570Z,7.35
2022-11-06T15:06:34.685Z,6.45
2022-11-06T15:09:16.095Z,5.95
2022-11-06T15:11:47.646Z,5.10
2022-11-06T15:14:17.538Z,6.43
2022-11-06T15:16:55.896Z,6.03
2022-11-06T15:19:28.287Z,6.55
2022-11-06T15:22:04.481Z,6.20
2022-11-06T15:24:56.913Z,6.53
2022-11-06T15:27:42.968Z,6.50
2022-11-06T15:30:16.693Z,7.38
2022-11-06T15:32:46.020Z,6.28
2022-11-06T15:35:27.711Z,6.50
2022-11-06T15:38:17.073Z,6.75
2022-11-06T15:40:44.586Z,6.25
2022-11-06T15:43:24.256Z,6.05
2022-11-06T15:46:12.709Z,6.30
2022-11-06T15:48:39.376Z,5.68
2022-11-06T15:51:28.676Z,6.57
2022-11-06T15:53:55.753Z,5.78
2022-11-06T15:56:31.639Z,6.75
2022-11-06T15:59:24.378Z,8.38
2022-11-06T16:01:51.167Z,5.60
2022-11-06T16:04:25.732Z,7.22
2022-11-06T16:06:55.120Z,7.50
2022-11-06T16:09:25.281Z,8.05
2022-11-06T16:11:53.090Z,10.02
2022-11-06T16:14:20.702Z,10.88
2022-11-06T16:16:51.348Z,9.70
2022-11-06T16:19:20.508Z,6.80
2022-11-06T16:22:04.313Z,8.38
2022-11-06T16:24:40.136Z,11.30
2022-11-06T16:27:07.324Z,11.73
2022-11-06T16:29:34.809Z,12.52
2022-11-06T16:32:18.243Z,12.60
2022-11-06T16:34:47.025Z,12.45
2022-11-06T16:37:16.377Z,12.40
2022-11-06T16:39:52.844Z,12.10
2022-11-06T16:42:22.637Z,11.80
2022-11-06T16:45:00.337Z,13.40
2022-11-06T16:47:27.504Z,12.90
2022-11-06T16:49:59.752Z,14.23
2022-11-06T16:55:34.410Z,12.40
2022-11-06T16:58:03.289Z,11.27
2022-11-06T17:00:31.875Z,9.77
2022-11-06T17:03:04.610Z,10.55
2022-11-06T17:05:50.257Z,12.10
2022-11-06T17:08:40.259Z,12.57
2022-11-06T17:11:12.799Z,11.30
2022-11-06T17:13:45.347Z,10.57
2022-11-06T17:16:15.654Z,9.93
2022-11-06T17:18:43.053Z,10.85
2022-11-06T17:21:14.220Z,8.88
2022-11-06T17:23:41.588Z,9.13
2022-11-06T17:26:13.304Z,10.95
2022-11-06T17:28:40.269Z,11.27
2022-11-06T17:31:11.116Z,10.68
2022-11-06T17:33:37.978Z,11.35
2022-11-06T17:36:05.512Z,11.65
2022-11-06T17:38:32.167Z,13.25
2022-11-06T17:40:58.777Z,14.18
2022-11-06T17:43:25.641Z,15.70
2022-11-06T17:45:52.491Z,15.88
2022-11-06T17:48:19.187Z,15.05
2022-11-06T17:51:04.600Z,14.65
2022-11-06T17:53:31.339Z,14.43
2022-11-06T17:55:58.138Z,14.82
2022-11-06T17:58:25.069Z,17.33
2022-11-06T18:00:51.852Z,16.58
2022-11-06T18:03:20.611Z,16.90
2022-11-06T18:05:47.518Z,18.05
2022-11-06T18:08:15.156Z,18.05
2022-11-06T18:10:42.477Z,17.38
2022-11-06T18:13:09.391Z,16.05
2022-11-06T18:15:37.506Z,18.35
2022-11-06T18:18:04.504Z,18.25
2022-11-06T18:20:31.198Z,16.73
2022-11-06T18:22:57.861Z,18.70
2022-11-06T18:25:24.613Z,18.27
2022-11-06T18:27:51.146Z,20.17
2022-11-06T18:30:17.867Z,20.65
2022-11-06T18:32:44.725Z,22.08
2022-11-06T18:35:11.742Z,22.35
2022-11-06T18:37:38.813Z,23.70
2022-11-06T18:40:05.812Z,23.02
2022-11-06T18:42:32.605Z,23.30
2022-11-06T18:44:59.212Z,23.00
2022-11-06T18:47:25.897Z,22.73
2022-11-06T18:49:52.557Z,23.10
2022-11-06T18:52:38.084Z,21.17
2022-11-06T18:55:06.333Z,20.77
2022-11-06T18:57:33.060Z,20.50
2022-11-06T18:59:59.867Z,22.17
2022-11-06T19:02:26.650Z,21.30
2022-11-06T19:04:53.923Z,22.58
2022-11-06T19:07:20.596Z,20.38
2022-11-06T19:09:47.470Z,19.50
2022-11-06T19:12:14.055Z,23.52
2022-11-06T19:14:40.623Z,20.40
2022-11-06T19:17:07.455Z,19.92
2022-11-06T19:19:34.167Z,19.27
2022-11-06T19:22:00.991Z,19.48
2022-11-06T19:24:27.576Z,19.98
2022-11-06T19:26:54.577Z,17.17
2022-11-06T19:29:21.369Z,19.60
2022-11-06T19:31:48.064Z,19.08
2022-11-06T19:34:15.202Z,19.83
2022-11-06T19:36:41.779Z,19.27
2022-11-06T19:39:08.562Z,18.48
2022-11-06T19:41:35.265Z,16.25
2022-11-06T19:44:01.839Z,17.70
2022-11-06T19:46:33.863Z,16.27
2022-11-06T19:49:06.527Z,16.73
2022-11-06T19:51:34.089Z,16.25
2022-11-06T19:54:01.599Z,15.43
2022-11-06T19:56:28.339Z,16.45
2022-11-06T19:58:54.881Z,16.83
2022-11-06T20:01:22.015Z,16.90
2022-11-06T20:03:48.759Z,17.25
2022-11-06T20:06:16.974Z,16.50
2022-11-06T20:08:47.447Z,16.77
2022-11-06T20:11:15.377Z,17.20
2022-11-06T20:13:43.479Z,16.83
2022-11-06T20:16:13.065Z,17.48
2022-11-06T20:18:39.889Z,18.88
2022-11-06T20:21:09.084Z,18.65
2022-11-06T20:23:36.512Z,19.33
2022-11-06T20:26:04.837Z,19.45
2022-11-06T20:28:32.290Z,19.20
2022-11-06T20:30:59.757Z,18.88
2022-11-06T20:33:26.619Z,17.67
2022-11-06T20:35:53.360Z,18.73
2022-11-06T20:38:20.112Z,18.05
2022-11-06T20:40:46.655Z,18.02
2022-11-06T20:43:14.045Z,18.70
2022-11-06T20:45:41.051Z,19.20
2022-11-06T20:48:09.352Z,18.70
2022-11-06T20:50:36.032Z,21.85
2022-11-06T20:53:02.829Z,21.55
2022-11-06T20:55:29.515Z,22.60
2022-11-06T20:57:56.589Z,26.05
2022-11-06T21:00:23.310Z,22.52
2022-11-06T21:02:50.130Z,23.88
2022-11-06T21:05:17.523Z,22.50
2022-11-06T21:07:44.198Z,23.05
2022-11-06T21:10:12.335Z,22.45
2022-11-06T21:12:39.414Z,22.65
2022-11-06T21:15:06.904Z,24.17
2022-11-06T21:17:34.806Z,24.45
2022-11-06T21:20:01.814Z,24.27
2022-11-06T21:22:28.513Z,20.40
2022-11-06T21:24:55.753Z,21.05
2022-11-06T21:27:22.519Z,20.98
2022-11-06T21:29:49.078Z,20.95
2022-11-06T21:32:15.746Z,21.13
2022-11-06T21:34:42.628Z,20.15
2022-11-06T21:37:09.535Z,20.95
2022-11-06T21:39:36.833Z,25.05
2022-11-06T21:42:05.008Z,25.38
2022-11-06T21:44:32.282Z,28.70
2022-11-06T21:46:59.017Z,27.17
2022-11-06T21:49:25.759Z,27.70
2022-11-06T21:51:52.820Z,30.00
2022-11-06T21:54:37.927Z,32.25
2022-11-06T21:57:04.673Z,33.92
2022-11-06T21:59:31.316Z,34.42
2022-11-06T22:01:58.165Z,34.30
2022-11-06T22:04:25.063Z,32.80
2022-11-06T22:06:52.627Z,34.15
2022-11-06T22:09:24.923Z,30.92
2022-11-06T22:11:52.134Z,29.80
2022-11-06T22:14:18.749Z,28.85
2022-11-06T22:16:46.876Z,27.23
2022-11-06T22:19:15.015Z,30.25
2022-11-06T22:21:41.789Z,28.38
2022-11-06T22:24:10.543Z,25.98
2022-11-06T22:26:37.908Z,30.17
2022-11-06T22:29:08.552Z,26.65
2022-11-06T22:31:35.655Z,26.25
2022-11-06T22:34:02.960Z,26.80
2022-11-06T22:36:29.701Z,26.23
2022-11-06T22:38:57.712Z,26.20
2022-11-06T22:41:25.097Z,26.13
2022-11-06T22:43:53.218Z,26.70
2022-11-06T22:46:23.503Z,27.15
2022-11-06T22:48:52.122Z,24.85
2022-11-06T22:51:22.172Z,27.63
2022-11-06T22:53:50.468Z,24.33
2022-11-06T22:56:17.754Z,24.30
2022-11-06T22:58:44.949Z,24.00
2022-11-06T23:01:11.995Z,23.60
2022-11-06T23:03:39.723Z,24.67
2022-11-06T23:06:09.375Z,27.63
2022-11-06T23:08:40.628Z,27.02
2022-11-06T23:11:14.905Z,26.70
2022-11-06T23:13:41.788Z,26.85
2022-11-06T23:16:12.301Z,25.92
2022-11-06T23:18:39.648Z,27.70
2022-11-06T23:21:14.452Z,28.25
2022-11-06T23:23:42.523Z,29.83
2022-11-06T23:26:17.019Z,27.17
2022-11-06T23:28:45.279Z,28.48
2022-11-06T23:31:12.982Z,27.50
2022-11-06T23:33:40.319Z,27.73
2022-11-06T23:36:08.300Z,28.05
2022-11-06T23:38:35.310Z,26.98
2022-11-06T23:41:27.079Z,26.92
2022-11-06T23:43:54.448Z,26.55
2022-11-06T23:46:23.908Z,27.98
2022-11-06T23:48:50.675Z,29.17
2022-11-06T23:51:17.488Z,28.00
2022-11-06T23:53:44.928Z,28.92
2022-11-06T23:56:12.860Z,30.38
2022-11-06T23:58:40.650Z,29.80
